Time;durP1;ratioP1;P1;durP2;ratioP2;P2;SDS_P1;SDS_P2;PMS_P1;PMS_P2;Temp;Humidity;BMP_temperature;BMP_pressure;BME280_temperature;BME280_humidity;BME280_pressure;Samples;Min_cycle;Max_cycle;Signal;HPM_P1;HPM_P2
2022/10/04 00:00:44;;;;;;;14.98;2.85;;;;;;;9.97;100.00;100677.41;3438382;85;30743;-84
2022/10/04 00:05:53;;;;;;;15.32;3.05;;;;;;;9.94;100.00;100681.48;3434271;84;98538;-85
2022/10/04 00:11:20;;;;;;;10.10;2.43;;;;;;;9.91;100.00;100679.45;3455705;85;25864;-84
2022/10/04 00:16:30;;;;;;;17.17;3.80;;;;;;;9.89;100.00;100685.91;3444810;85;98581;-84
2022/10/04 00:21:56;;;;;;;11.83;2.40;;;;;;;9.84;100.00;100682.89;3457340;85;28149;-84
2022/10/04 00:27:21;;;;;;;12.97;2.23;;;;;;;9.81;100.00;100686.35;3427479;85;98402;-83
2022/10/04 00:32:42;;;;;;;8.68;1.87;;;;;;;9.78;100.00;100691.79;3444456;83;30106;-84
2022/10/04 00:38:03;;;;;;;9.63;2.37;;;;;;;9.73;100.00;100687.96;3488080;83;98376;-84
2022/10/04 00:43:20;;;;;;;12.47;2.90;;;;;;;9.69;100.00;100678.28;3473697;83;32266;-84
2022/10/04 00:48:41;;;;;;;13.68;2.72;;;;;;;9.64;100.00;100679.95;3503013;83;98474;-84
2022/10/04 00:54:16;;;;;;;15.27;2.57;;;;;;;9.60;100.00;100683.80;3491932;83;98827;-83
2022/10/04 00:59:39;;;;;;;11.75;2.52;;;;;;;9.57;100.00;100683.95;3465655;83;31790;-84
2022/10/04 01:05:00;;;;;;;13.70;2.33;;;;;;;9.52;100.00;100682.06;3487363;83;98878;-84
2022/10/04 01:10:33;;;;;;;9.77;2.60;;;;;;;9.49;100.00;100679.46;3505573;83;26013;-84
2022/10/04 01:15:44;;;;;;;12.00;2.30;;;;;;;9.48;100.00;100682.59;3455473;83;98749;-84
2022/10/04 01:20:59;;;;;;;15.60;2.22;;;;;;;9.45;100.00;100683.31;3459261;83;30871;-84
2022/10/04 01:26:03;;;;;;;11.63;2.90;;;;;;;9.43;100.00;100683.66;3468283;83;98898;-84
2022/10/04 01:31:04;;;;;;;10.13;2.70;;;;;;;9.39;100.00;100681.42;3440984;83;31339;-83
2022/10/04 01:36:06;;;;;;;15.47;3.37;;;;;;;9.36;100.00;100690.41;3430017;84;98897;-84
2022/10/04 01:41:09;;;;;;;11.03;2.50;;;;;;;9.32;100.00;100689.53;3426423;85;26502;-84
2022/10/04 01:46:32;;;;;;;13.17;2.53;;;;;;;9.29;100.00;100690.83;3436684;85;99101;-84
2022/10/04 01:51:39;;;;;;;10.82;2.00;;;;;;;9.26;100.00;100701.97;3420013;85;30393;-84
2022/10/04 01:56:46;;;;;;;11.22;2.35;;;;;;;9.25;100.00;100694.08;3420593;85;99061;-85
2022/10/04 02:01:59;;;;;;;14.60;2.13;;;;;;;9.23;100.00;100690.91;3411309;85;30141;-85
2022/10/04 02:07:02;;;;;;;12.97;2.00;;;;;;;9.22;100.00;100687.95;3400822;85;98453;-86
2022/10/04 02:12:03;;;;;;;11.03;2.27;;;;;;;9.24;100.00;100695.23;3430333;85;30709;-86
2022/10/04 02:17:09;;;;;;;13.07;2.03;;;;;;;9.27;100.00;100697.28;3438861;84;98407;-86
2022/10/04 02:22:11;;;;;;;13.88;2.58;;;;;;;9.28;100.00;100698.27;3442507;85;26340;-86
2022/10/04 02:27:13;;;;;;;19.52;2.83;;;;;;;9.29;100.00;100704.56;3435697;85;98366;-84
2022/10/04 02:37:43;;;;;;;12.33;2.40;;;;;;;9.37;100.00;100702.20;3464662;83;98369;-85
2022/10/04 02:43:01;;;;;;;12.03;3.00;;;;;;;9.41;100.00;100709.91;3486315;83;26812;-84
2022/10/04 02:48:07;;;;;;;11.97;2.20;;;;;;;9.43;100.00;100711.73;3471843;83;98396;-84
2022/10/04 02:53:25;;;;;;;16.73;2.25;;;;;;;9.42;100.00;100716.42;3501960;83;25908;-85
2022/10/04 02:58:26;;;;;;;7.85;2.17;;;;;;;9.44;100.00;100709.20;3528742;81;98371;-85
2022/10/04 03:03:35;;;;;;;9.75;2.55;;;;;;;9.42;100.00;100706.00;3485903;83;32292;-85
2022/10/04 03:08:47;;;;;;;11.55;2.27;;;;;;;9.40;100.00;100700.89;3518488;83;29917;-86
2022/10/04 03:13:53;;;;;;;10.13;2.17;;;;;;;9.36;100.00;100708.26;3499228;83;98873;-85
2022/10/04 03:18:56;;;;;;;15.93;3.00;;;;;;;9.31;100.00;100704.42;3503766;83;30723;-86
2022/10/04 03:23:59;;;;;;;15.40;2.70;;;;;;;9.28;100.00;100709.25;3506210;83;98633;-85
2022/10/04 03:29:01;;;;;;;12.87;2.37;;;;;;;9.25;100.00;100714.67;3481862;83;26562;-85
2022/10/04 03:34:03;;;;;;;8.67;2.37;;;;;;;9.23;100.00;100717.81;3471358;83;98672;-86
2022/10/04 03:39:09;;;;;;;8.40;2.33;;;;;;;9.20;100.00;100711.65;3483369;83;25885;-86
2022/10/04 03:44:14;;;;;;;12.15;2.33;;;;;;;9.18;100.00;100716.72;3487163;83;98669;-85
2022/10/04 03:49:20;;;;;;;10.93;2.15;;;;;;;9.16;100.00;100714.11;3519093;83;31279;-85
2022/10/04 03:54:26;;;;;;;17.20;2.90;;;;;;;9.16;100.00;100711.36;3492846;83;98621;-85
2022/10/04 03:59:28;;;;;;;12.23;2.87;;;;;;;9.13;100.00;100696.97;3493296;83;25956;-85
2022/10/04 04:04:40;;;;;;;15.10;2.53;;;;;;;9.14;100.00;100705.42;3491496;83;98897;-86
2022/10/04 04:10:02;;;;;;;13.30;4.83;;;;;;;9.15;100.00;100717.98;3468071;83;26053;-86
2022/10/04 04:15:42;;;;;;;17.37;3.72;;;;;;;9.17;100.00;100714.33;3447905;83;98934;-86
2022/10/04 04:20:51;;;;;;;12.90;4.28;;;;;;;9.22;100.00;100729.92;3488827;83;31123;-86
2022/10/04 04:26:39;;;;;;;20.80;6.30;;;;;;;9.28;100.00;100729.07;3452296;83;98897;-87
2022/10/04 04:32:09;;;;;;;;;;;;;;;;;;;;;
2022/10/04 04:37:04;;;;;;;16.97;5.42;;;;;;;9.41;100.00;100742.30;3452374;83;99343;-86
2022/10/04 04:42:36;;;;;;;;;;;;;;;;;;;;;
2022/10/04 04:47:49;;;;;;;16.17;7.58;;;;;;;9.56;100.00;100750.25;3504814;83;98781;-86
2022/10/04 04:53:01;;;;;;;20.23;6.80;;;;;;;9.63;100.00;100748.45;3499790;83;26490;-88
2022/10/04 04:58:12;;;;;;;19.00;5.97;;;;;;;9.69;100.00;100759.92;3464240;83;98816;-86
2022/10/04 05:03:18;;;;;;;;;;;;;;;9.73;100.00;100762.17;3488316;83;26576;-86
2022/10/04 05:08:28;;;;;;;21.40;7.10;;;;;;;9.78;100.00;100761.31;3478369;83;84643;-84
2022/10/04 05:13:46;;;;;;;19.47;6.47;;;;;;;9.82;100.00;100760.78;3492176;83;28804;-85
2022/10/04 05:18:48;;;;;;;17.35;5.92;;;;;;;9.87;100.00;100778.36;3487645;83;30457;-85
2022/10/04 05:23:50;;;;;;;21.33;7.05;;;;;;;9.91;100.00;100779.23;3483597;83;98762;-85
2022/10/04 05:28:54;;;;;;;21.37;6.15;;;;;;;9.97;100.00;100783.87;3499360;83;30813;-85
2022/10/04 05:34:04;;;;;;;18.60;6.67;;;;;;;10.02;100.00;100788.47;3471197;83;98597;-87
2022/10/04 05:39:37;;;;;;;19.05;6.97;;;;;;;10.07;100.00;100792.33;3472622;83;30764;-86
2022/10/04 05:44:45;;;;;;;16.02;7.12;;;;;;;10.14;100.00;100797.18;3478597;83;99225;-86
2022/10/04 05:49:51;;;;;;;11.47;5.63;;;;;;;10.21;100.00;100802.23;3489876;83;27965;-85
2022/10/04 05:55:24;;;;;;;20.57;7.40;;;;;;;10.26;100.00;100808.01;3480354;83;98937;-87
2022/10/04 06:00:52;;;;;;;19.67;6.22;;;;;;;10.30;100.00;100812.41;3479862;83;29825;-87
2022/10/04 06:06:08;;;;;;;18.37;5.97;;;;;;;10.38;100.00;100815.52;3477000;83;99258;-87
2022/10/04 06:11:26;;;;;;;16.20;5.47;;;;;;;10.41;100.00;100809.27;3478798;83;29637;-89
2022/10/04 06:17:00;;;;;;;16.80;5.43;;;;;;;10.51;100.00;100816.10;3466334;83;99592;-88
2022/10/04 06:22:09;;;;;;;16.50;5.60;;;;;;;10.59;100.00;100826.89;3481067;83;30369;-87
2022/10/04 06:27:31;;;;;;;19.00;5.40;;;;;;;10.68;100.00;100832.16;3486654;83;99007;-88
2022/10/04 06:32:58;;;;;;;16.23;4.83;;;;;;;10.76;100.00;100829.15;3456273;83;31775;-89
2022/10/04 06:38:33;;;;;;;16.87;5.27;;;;;;;10.86;100.00;100842.88;3381675;85;98848;-89
2022/10/04 06:44:05;;;;;;;17.00;5.03;;;;;;;10.96;100.00;100846.38;3403219;85;31317;-89
2022/10/04 06:49:24;;;;;;;16.60;5.47;;;;;;;11.06;100.00;100851.27;3386785;86;27887;-88
2022/10/04 06:54:41;;;;;;;16.25;5.65;;;;;;;11.18;100.00;100856.57;3375864;86;99122;-86
2022/10/04 06:59:57;;;;;;;18.42;5.05;;;;;;;11.28;100.00;100855.34;3377543;86;31792;-87
2022/10/04 07:05:29;;;;;;;17.85;5.20;;;;;;;11.40;100.00;100864.77;3389227;86;98818;-88
2022/10/04 07:10:35;;;;;;;14.95;5.25;;;;;;;11.53;100.00;100864.77;3392341;86;32099;-87
2022/10/04 07:15:57;;;;;;;17.20;5.83;;;;;;;11.66;100.00;100870.29;3394140;85;99106;-88
2022/10/04 07:21:07;;;;;;;19.62;6.08;;;;;;;11.76;100.00;100876.53;3394752;86;31141;-89
2022/10/04 07:26:37;;;;;;;17.57;5.62;;;;;;;11.93;100.00;100876.57;3389728;85;99095;-88
2022/10/04 07:31:39;;;;;;;14.00;4.95;;;;;;;12.04;100.00;100883.79;3388751;84;30830;-87
2022/10/04 07:36:55;;;;;;;14.35;4.80;;;;;;;12.17;100.00;100880.20;3423125;85;99166;-88
2022/10/04 07:42:19;;;;;;;14.43;4.67;;;;;;;12.41;100.00;100881.86;3408766;84;31875;-91
2022/10/04 07:47:25;;;;;;;15.65;5.90;;;;;;;12.41;100.00;100881.86;3432191;84;99254;-87
2022/10/04 07:52:51;;;;;;;;;;;;;;;12.48;100.00;100890.81;3401430;84;26163;-86
2022/10/04 07:58:40;;;;;;;16.82;4.92;;;;;;;12.59;100.00;100899.40;3365811;85;84857;-88
2022/10/04 08:04:27;;;;;;;18.10;6.40;;;;;;;12.74;100.00;100892.85;3394588;83;98817;-89
2022/10/04 08:09:42;;;;;;;13.88;4.97;;;;;;;12.89;100.00;100901.48;3414608;85;32135;-88
2022/10/04 08:14:58;;;;;;;12.60;4.47;;;;;;;13.06;100.00;100902.83;3415990;85;99154;-89
2022/10/04 08:20:25;;;;;;;15.50;4.70;;;;;;;13.26;100.00;100910.52;3419753;85;25869;-88
2022/10/04 08:25:48;;;;;;;12.85;3.98;;;;;;;13.36;100.00;100906.25;3427535;83;98958;-88
2022/10/04 08:31:44;;;;;;;11.95;4.25;;;;;;;13.54;99.26;100922.37;3424716;84;30032;-88
2022/10/04 08:37:05;;;;;;;12.07;3.87;;;;;;;13.68;99.17;100928.00;3420025;85;98760;-87
2022/10/04 08:42:30;;;;;;;14.38;3.85;;;;;;;13.82;98.24;100934.99;3433991;85;30940;-86
2022/10/04 08:47:57;;;;;;;13.58;4.03;;;;;;;13.90;96.78;100930.49;3419613;84;98563;-87
2022/10/04 08:53:21;;;;;;;10.17;3.27;;;;;;;14.06;96.04;100931.59;3412980;85;25837;-89
2022/10/04 08:59:07;;;;;;;13.17;3.73;;;;;;;14.24;96.10;100942.17;3405724;83;98835;-87
2022/10/04 09:04:38;;;;;;;15.10;3.20;;;;;;;14.60;95.83;100939.75;3418372;84;99077;-88
2022/10/04 09:10:18;;;;;;;9.10;3.25;;;;;;;14.83;95.12;100937.42;3424564;84;30510;-87
2022/10/04 09:15:30;;;;;;;8.15;3.10;;;;;;;15.25;94.48;100947.95;3414963;85;99005;-88
2022/10/04 09:20:48;;;;;;;10.50;3.20;;;;;;;15.63;92.27;100940.82;3421561;85;53614;-88
2022/10/04 09:26:14;;;;;;;9.15;3.25;;;;;;;15.91;91.21;100959.61;3411033;85;98993;-88
2022/10/04 09:31:32;;;;;;;6.87;2.50;;;;;;;16.28;90.40;100959.11;3419442;84;31701;-88
2022/10/04 09:36:51;;;;;;;9.55;2.55;;;;;;;16.54;88.98;100966.39;3446450;84;98875;-88
2022/10/04 09:42:12;;;;;;;11.45;2.60;;;;;;;16.73;88.40;100970.66;3462481;84;31694;-88
2022/10/04 09:47:37;;;;;;;10.80;2.60;;;;;;;16.86;86.46;100968.41;3455742;84;98499;-87
2022/10/04 09:53:05;;;;;;;7.50;2.47;;;;;;;16.98;84.87;100965.15;3460911;84;32803;-86
2022/10/04 09:58:50;;;;;;;6.30;2.40;;;;;;;16.95;83.02;100972.90;3458085;84;98898;-87
2022/10/04 10:04:01;;;;;;;7.95;2.35;;;;;;;16.98;83.01;100982.42;3466232;84;98917;-87
2022/10/04 10:15:13;;;;;;;5.33;2.03;;;;;;;17.16;81.55;100988.06;3457409;84;99066;-87
2022/10/04 10:20:39;;;;;;;10.78;2.60;;;;;;;17.19;80.35;100991.44;3475071;81;25631;-87
2022/10/04 10:26:11;;;;;;;9.80;2.00;;;;;;;17.53;80.24;100994.37;3474155;84;98764;-85
2022/10/04 10:31:32;;;;;;;10.50;2.33;;;;;;;17.73;76.01;101002.36;3468510;84;31647;-87
2022/10/04 10:36:54;;;;;;;10.20;3.02;;;;;;;17.43;76.20;101000.22;3498010;83;98955;-86
2022/10/04 10:42:12;;;;;;;5.58;2.00;;;;;;;17.87;77.16;101009.98;3345805;87;32319;-86
2022/10/04 10:47:40;;;;;;;9.55;2.12;;;;;;;18.24;73.70;101009.20;3350380;86;99046;-87
2022/10/04 10:53:23;;;;;;;13.55;2.37;;;;;;;18.40;74.34;101019.20;3415222;85;32951;-88
2022/10/04 10:58:47;;;;;;;6.78;1.82;;;;;;;18.64;73.83;101011.94;3487910;83;98867;-87
2022/10/04 11:04:34;;;;;;;6.80;1.97;;;;;;;18.74;72.98;101018.62;3496126;83;98898;-87
2022/10/04 11:10:00;;;;;;;6.00;2.20;;;;;;;19.05;72.25;101020.97;3466969;83;31676;-87
2022/10/04 11:15:40;;;;;;;6.72;2.33;;;;;;;19.19;72.08;101019.98;3505487;83;98792;-89
2022/10/04 11:21:14;;;;;;;8.00;1.80;;;;;;;19.01;70.26;101025.80;3504481;83;31649;-86
2022/10/04 11:26:28;;;;;;;8.05;2.08;;;;;;;18.86;70.60;101035.56;3486241;83;98534;-90
2022/10/04 11:32:01;;;;;;;6.70;2.10;;;;;;;18.82;69.42;101027.06;3478901;83;31787;-88
2022/10/04 11:37:47;;;;;;;9.93;2.02;;;;;;;18.82;69.22;101028.45;3443893;83;98316;-87
2022/10/04 11:43:17;;;;;;;9.85;2.12;;;;;;;18.65;67.49;101028.85;3437149;85;25981;-89
2022/10/04 11:48:33;;;;;;;8.43;1.70;;;;;;;18.64;66.51;101028.67;3427988;85;98344;-87
2022/10/04 11:54:03;;;;;;;6.33;2.00;;;;;;;18.45;66.33;101020.14;3436412;85;31646;-91
2022/10/04 11:59:38;;;;;;;4.97;1.37;;;;;;;18.40;65.86;101017.22;3449324;85;31712;-87
2022/10/04 12:05:12;;;;;;;6.10;1.80;;;;;;;18.42;65.91;101018.98;3428909;85;98652;-85
2022/10/04 12:10:31;;;;;;;8.83;1.82;;;;;;;18.64;67.27;101013.95;3437466;85;32291;-86
2022/10/04 12:16:03;;;;;;;7.97;1.92;;;;;;;18.82;66.69;101020.09;3422993;85;99266;-87
2022/10/04 12:21:30;;;;;;;5.83;1.67;;;;;;;18.90;65.86;101006.22;3421271;85;31720;-86
2022/10/04 12:26:55;;;;;;;7.15;1.40;;;;;;;18.86;64.65;101009.06;3428740;85;98651;-87
2022/10/04 12:32:18;;;;;;;9.45;2.00;;;;;;;18.87;66.12;100994.52;3419668;85;32073;-87
2022/10/04 12:37:52;;;;;;;6.30;1.67;;;;;;;18.92;65.51;100995.45;3403038;84;98559;-87
2022/10/04 12:43:24;;;;;;;5.83;1.35;;;;;;;18.87;66.21;101005.68;3433627;84;32400;-88
2022/10/04 12:49:13;;;;;;;5.90;1.37;;;;;;;18.82;65.73;101002.77;3411021;84;98308;-87
2022/10/04 12:54:32;;;;;;;6.62;1.65;;;;;;;18.63;65.37;101013.78;3408436;84;98591;-86
2022/10/04 12:59:51;;;;;;;7.85;1.77;;;;;;;18.52;64.84;101011.10;3420657;84;32270;-87
2022/10/04 13:05:12;;;;;;;4.92;1.62;;;;;;;18.31;64.43;101010.53;3423296;84;98849;-86
2022/10/04 13:10:46;;;;;;;5.70;1.60;;;;;;;18.15;65.24;101018.05;3395676;84;31676;-87
2022/10/04 13:16:20;;;;;;;8.30;2.20;;;;;;;18.00;65.64;101013.84;3378604;84;98801;-87
2022/10/04 13:21:28;;;;;;;4.90;1.55;;;;;;;17.82;64.85;101009.02;3398418;84;32296;-86
2022/10/04 13:26:43;;;;;;;9.43;2.22;;;;;;;17.59;64.11;101015.80;3374307;84;98596;-87
2022/10/04 13:32:13;;;;;;;4.55;1.77;;;;;;;17.48;64.28;101017.88;3424426;84;32970;-88
2022/10/04 13:37:43;;;;;;;7.70;1.77;;;;;;;17.42;65.22;101004.80;3462693;83;98352;-86
2022/10/04 13:43:19;;;;;;;4.92;1.40;;;;;;;17.36;65.33;101016.94;3482856;84;31766;-88
2022/10/04 13:48:53;;;;;;;7.75;2.15;;;;;;;17.26;64.72;101017.00;3470506;83;98403;-88
2022/10/04 14:00:10;;;;;;;5.20;1.70;;;;;;;17.15;64.18;101020.45;3462442;84;31662;-88
2022/10/04 14:05:40;;;;;;;8.80;1.95;;;;;;;17.03;65.07;101023.70;3456577;82;98761;-87
2022/10/04 14:11:08;;;;;;;9.90;1.60;;;;;;;16.96;64.67;101014.02;3456420;84;31715;-88
2022/10/04 14:16:20;;;;;;;4.58;1.40;;;;;;;16.90;64.42;101026.16;3456105;84;98642;-88
2022/10/04 14:21:53;;;;;;;4.67;1.30;;;;;;;16.85;65.16;101010.51;3457550;84;32210;-86
2022/10/04 14:27:12;;;;;;;5.37;1.65;;;;;;;16.75;64.99;101014.93;3470147;84;98534;-84
2022/10/04 14:32:44;;;;;;;4.30;1.02;;;;;;;16.70;64.82;101017.33;3475212;83;32253;-87
2022/10/04 14:38:15;;;;;;;5.53;2.10;;;;;;;16.60;65.14;101015.38;3422217;84;98550;-87
2022/10/04 14:43:59;;;;;;;4.50;1.10;;;;;;;16.47;64.87;101015.64;3414758;85;32225;-85
2022/10/04 14:49:26;;;;;;;5.17;1.27;;;;;;;16.37;65.00;101016.42;3432651;85;32190;-85
2022/10/04 14:54:41;;;;;;;5.40;1.27;;;;;;;16.26;65.37;101024.80;3414321;85;99090;-85
2022/10/04 15:00:19;;;;;;;4.33;1.30;;;;;;;16.17;65.48;101023.03;3426983;85;30036;-87
2022/10/04 15:05:44;;;;;;;5.33;1.37;;;;;;;16.10;66.37;101018.08;3420262;85;98767;-88
2022/10/04 15:10:56;;;;;;;9.95;1.80;;;;;;;15.97;66.10;101026.03;3425613;85;32221;-87
2022/10/04 15:16:14;;;;;;;4.90;1.55;;;;;;;15.87;66.28;101031.61;3416309;85;98979;-86
2022/10/04 15:21:46;;;;;;;12.28;2.05;;;;;;;15.73;66.36;101031.60;3418120;85;32469;-86
2022/10/04 15:27:23;;;;;;;9.08;3.40;;;;;;;15.61;67.36;101035.58;3397780;84;99081;-88
2022/10/04 15:32:38;;;;;;;6.85;2.58;;;;;;;15.46;67.66;101034.56;3423376;85;32754;-87
2022/10/04 15:37:51;;;;;;;10.67;2.20;;;;;;;15.31;68.09;101051.75;3462484;83;98434;-86
2022/10/04 15:43:09;;;;;;;5.40;1.90;;;;;;;15.20;68.38;101052.94;3412562;85;31284;-86
2022/10/04 15:48:34;;;;;;;5.95;2.45;;;;;;;15.10;69.15;101048.16;3415681;85;98579;-86
2022/10/04 15:53:52;;;;;;;6.12;2.02;;;;;;;15.02;70.21;101053.47;3418653;85;32205;-87
2022/10/04 15:59:20;;;;;;;6.65;3.52;;;;;;;14.89;70.85;101058.56;3489439;83;31690;-86
2022/10/04 16:04:45;;;;;;;9.80;3.72;;;;;;;14.78;71.62;101042.48;3477143;83;98808;-85
2022/10/04 16:10:13;;;;;;;7.87;2.83;;;;;;;14.62;72.60;101045.41;3489723;83;29821;-86
2022/10/04 16:15:19;;;;;;;10.90;4.87;;;;;;;14.48;73.48;101039.78;3484567;83;98807;-86
2022/10/04 16:20:48;;;;;;;;;;;;;;;14.35;74.23;101037.97;3494162;83;26744;-87
2022/10/04 16:25:51;;;;;;;13.13;7.10;;;;;;;14.21;75.62;101042.02;3481494;83;85140;-87
2022/10/04 16:31:20;;;;;;;12.65;6.33;;;;;;;14.06;75.70;101034.77;3461413;83;30894;-86
2022/10/04 16:36:26;;;;;;;12.40;5.80;;;;;;;13.95;76.47;101038.05;3478583;83;99284;-86
2022/10/04 16:41:39;;;;;;;14.13;5.55;;;;;;;13.80;76.74;101054.95;3493380;83;27275;-86
2022/10/04 16:46:44;;;;;;;15.28;5.03;;;;;;;13.64;77.52;101053.03;3482000;83;99052;-86
2022/10/04 16:52:02;;;;;;;14.05;4.92;;;;;;;13.49;78.09;101050.73;3490106;83;31949;-86
2022/10/04 16:57:21;;;;;;;12.88;6.87;;;;;;;13.38;78.77;101057.33;3489343;83;98875;-86
2022/10/04 17:02:44;;;;;;;43.58;21.27;;;;;;;13.08;79.66;101051.89;3488318;83;29819;-85
2022/10/04 17:08:18;;;;;;;113.97;48.87;;;;;;;13.08;79.66;101051.89;3474973;83;99070;-86
2022/10/04 17:13:56;;;;;;;97.12;38.70;;;;;;;12.99;80.27;101057.52;3465125;83;30627;-86
2022/10/04 17:19:27;;;;;;;111.68;46.28;;;;;;;12.83;80.71;101063.80;3465783;83;31763;-86
2022/10/04 17:24:56;;;;;;;47.38;22.95;;;;;;;12.69;81.22;101074.09;3345633;87;99302;-86
2022/10/04 17:30:22;;;;;;;35.10;17.75;;;;;;;12.57;81.60;101068.81;3358728;86;25949;-86
2022/10/04 17:35:47;;;;;;;29.57;15.07;;;;;;;12.45;82.02;101077.33;3490111;83;98823;-86
2022/10/04 17:40:54;;;;;;;25.30;13.83;;;;;;;12.32;82.57;101072.41;3464709;84;30421;-86
2022/10/04 17:46:12;;;;;;;26.15;13.80;;;;;;;12.22;82.94;101081.33;3444336;84;99155;-87
2022/10/04 17:56:44;;;;;;;27.22;13.95;;;;;;;12.03;83.63;101083.60;3389790;84;99077;-87
2022/10/04 18:01:50;;;;;;;27.40;13.68;;;;;;;11.96;84.09;101088.21;3467846;84;25768;-87
2022/10/04 18:07:20;;;;;;;25.90;12.82;;;;;;;11.84;84.36;101077.38;3464404;84;99021;-87
2022/10/04 18:12:41;;;;;;;28.35;13.95;;;;;;;11.75;84.69;101083.72;3454659;84;31080;-87
2022/10/04 18:17:48;;;;;;;24.40;14.35;;;;;;;11.65;84.94;101081.00;3459720;84;98781;-86
2022/10/04 18:23:10;;;;;;;30.97;15.45;;;;;;;11.59;85.34;101080.30;3458066;84;32231;-86
2022/10/04 18:28:20;;;;;;;26.33;14.85;;;;;;;11.55;85.76;101080.80;3457165;84;99088;-85
2022/10/04 18:33:24;;;;;;;25.43;13.53;;;;;;;11.49;85.90;101083.06;3464359;84;27858;-87
2022/10/04 18:38:31;;;;;;;23.90;12.67;;;;;;;11.44;86.13;101086.72;3436026;84;98645;-86
2022/10/04 18:43:44;;;;;;;22.73;12.33;;;;;;;11.39;86.50;101098.81;3419227;84;26931;-86
2022/10/04 18:49:01;;;;;;;31.12;13.10;;;;;;;11.35;86.78;101099.33;3418848;84;30768;-86
2022/10/04 18:54:39;;;;;;;29.57;13.57;;;;;;;11.32;86.99;101099.27;3408650;84;98873;-86
2022/10/04 19:05:42;;;;;;;36.05;16.50;;;;;;;11.22;87.27;101106.74;3415138;84;98894;-86
2022/10/04 19:10:54;;;;;;;37.08;18.05;;;;;;;11.15;87.53;101117.06;3408747;84;31718;-86
2022/10/04 19:16:09;;;;;;;31.65;17.35;;;;;;;11.12;87.79;101119.16;3411826;84;99062;-86
2022/10/04 19:21:38;;;;;;;37.03;18.87;;;;;;;11.07;87.98;101124.18;3403961;84;30570;-87
2022/10/04 19:26:43;;;;;;;38.37;20.13;;;;;;;11.01;88.12;101118.16;3411700;84;98987;-87
2022/10/04 19:32:01;;;;;;;30.32;18.23;;;;;;;10.94;88.33;101107.56;3418344;84;31677;-87
2022/10/04 19:37:27;;;;;;;32.95;19.07;;;;;;;10.89;88.56;101103.72;3408704;85;98989;-87
2022/10/04 19:42:45;;;;;;;32.23;18.87;;;;;;;10.85;88.63;101107.00;3436191;84;26583;-86
2022/10/04 19:47:59;;;;;;;30.27;16.85;;;;;;;10.80;89.06;101108.67;3396892;85;98754;-86
2022/10/04 19:53:26;;;;;;;38.35;20.05;;;;;;;10.76;89.03;101109.16;3426711;84;31421;-86
2022/10/04 19:58:42;;;;;;;49.13;24.53;;;;;;;10.69;89.15;101116.69;3421973;84;98721;-85
2022/10/04 20:03:44;;;;;;;49.80;25.87;;;;;;;10.61;89.37;101112.77;3425449;84;99205;-85
2022/10/04 20:08:53;;;;;;;48.52;24.50;;;;;;;10.56;89.60;101113.86;3427132;84;30689;-86
2022/10/04 20:14:22;;;;;;;42.38;22.93;;;;;;;10.51;89.81;101116.08;3418304;84;99153;-85
2022/10/04 20:19:36;;;;;;;42.98;22.52;;;;;;;10.47;89.97;101120.73;3435382;85;32298;-85
2022/10/04 20:24:43;;;;;;;42.05;24.52;;;;;;;10.42;89.95;101119.03;3441085;84;99130;-85
2022/10/04 20:29:52;;;;;;;33.65;18.77;;;;;;;10.35;90.14;101125.77;3479362;84;30310;-85
2022/10/04 20:34:56;;;;;;;48.23;23.62;;;;;;;10.33;90.17;101132.78;3471010;83;98913;-84
2022/10/04 20:39:57;;;;;;;54.83;26.95;;;;;;;10.28;90.44;101139.93;3487000;84;30725;-85
2022/10/04 20:45:13;;;;;;;55.70;27.97;;;;;;;10.21;90.63;101147.45;3473183;84;98841;-85
2022/10/04 20:50:28;;;;;;;44.53;24.18;;;;;;;10.20;90.62;101158.81;3481061;84;25906;-85
2022/10/04 20:55:38;;;;;;;54.97;27.83;;;;;;;10.13;90.90;101158.05;3478052;83;98924;-84
2022/10/04 21:00:53;;;;;;;60.70;30.72;;;;;;;10.09;90.84;101163.25;3493190;84;32201;-84
2022/10/04 21:06:07;;;;;;;49.50;27.37;;;;;;;10.04;91.11;101158.80;3490212;83;98829;-85
2022/10/04 21:11:18;;;;;;;52.48;27.10;;;;;;;9.98;91.16;101160.79;3492337;83;29806;-84
2022/10/04 21:16:35;;;;;;;46.85;26.55;;;;;;;9.94;91.11;101162.08;3486342;83;98726;-84
2022/10/04 21:21:49;;;;;;;45.33;24.63;;;;;;;9.88;91.26;101155.81;3496042;83;25885;-84
2022/10/04 21:26:57;;;;;;;50.50;26.20;;;;;;;9.83;91.41;101154.70;3497058;82;98487;-84
2022/10/04 21:31:58;;;;;;;37.88;22.58;;;;;;;9.79;91.48;101157.36;3497522;83;30820;-84
2022/10/04 21:36:59;;;;;;;39.90;23.20;;;;;;;9.75;91.70;101155.69;3483012;83;98318;-84
2022/10/04 21:42:00;;;;;;;44.40;25.03;;;;;;;9.69;91.71;101152.95;3495980;83;35514;-84
2022/10/04 21:47:01;;;;;;;46.53;24.43;;;;;;;9.65;91.63;101153.45;3493952;83;98637;-84
2022/10/04 21:52:02;;;;;;;37.80;20.00;;;;;;;9.61;92.02;101148.44;3504761;83;35581;-85
2022/10/04 21:57:03;;;;;;;43.78;23.87;;;;;;;9.56;91.89;101150.88;3491846;83;98316;-84
2022/10/04 22:02:04;;;;;;;44.57;23.87;;;;;;;9.54;92.07;101141.38;3509812;84;35498;-84
2022/10/04 22:07:04;;;;;;;45.57;22.63;;;;;;;9.49;92.29;101138.30;3483009;83;98248;-85
2022/10/04 22:12:05;;;;;;;42.10;21.13;;;;;;;9.46;92.50;101131.34;3410103;86;34842;-85
2022/10/04 22:17:06;;;;;;;40.80;21.25;;;;;;;9.39;92.73;101132.53;3459095;84;98613;-84
2022/10/04 22:22:15;;;;;;;36.27;19.63;;;;;;;9.35;92.74;101130.26;3480043;84;26222;-84
2022/10/04 22:27:19;;;;;;;37.28;19.50;;;;;;;9.33;93.26;101135.31;3463958;84;98625;-85
2022/10/04 22:32:26;;;;;;;35.08;16.95;;;;;;;9.30;93.36;101125.02;3484063;84;35410;-84
2022/10/04 22:37:29;;;;;;;28.73;16.45;;;;;;;9.25;93.53;101126.08;3460308;83;98704;-84
2022/10/04 22:42:31;;;;;;;29.07;16.82;;;;;;;9.23;93.92;101109.16;3464899;84;35254;-84
2022/10/04 22:47:32;;;;;;;33.40;17.13;;;;;;;9.20;94.31;101096.12;3456539;84;98393;-84
2022/10/04 22:52:32;;;;;;;35.40;18.62;;;;;;;9.19;94.25;101093.72;3475013;83;27173;-84
2022/10/04 22:57:33;;;;;;;31.70;17.37;;;;;;;9.18;94.40;101094.31;3441570;84;98556;-84
2022/10/04 23:02:34;;;;;;;29.93;15.90;;;;;;;9.14;94.24;101087.92;3483162;84;26625;-84
2022/10/04 23:07:35;;;;;;;29.90;14.23;;;;;;;9.07;94.75;101071.26;3483599;84;98576;-84
2022/10/04 23:12:36;;;;;;;29.83;15.77;;;;;;;9.08;94.98;101069.30;3492068;83;33681;-84
2022/10/04 23:17:38;;;;;;;25.67;14.23;;;;;;;9.06;95.08;101066.11;3472945;83;98634;-84
2022/10/04 23:22:46;;;;;;;35.60;16.23;;;;;;;9.06;95.97;101058.66;3486332;84;33939;-84
2022/10/04 23:27:47;;;;;;;32.38;16.35;;;;;;;9.04;96.60;101065.64;3467920;84;98584;-83
2022/10/04 23:32:51;;;;;;;27.93;15.10;;;;;;;9.05;96.90;101060.41;3467827;84;25971;-84
2022/10/04 23:37:53;;;;;;;28.42;15.55;;;;;;;9.07;96.48;101067.70;3478409;83;98516;-84
2022/10/04 23:42:56;;;;;;;29.82;14.75;;;;;;;9.08;96.39;101062.43;3467100;84;34282;-84
2022/10/04 23:48:03;;;;;;;32.25;16.70;;;;;;;9.08;97.13;101047.33;3470882;84;98650;-84
2022/10/04 23:53:05;;;;;;;26.15;14.90;;;;;;;9.07;97.60;101052.60;3477905;84;34891;-84
2022/10/04 23:58:16;;;;;;;29.25;14.47;;;;;;;9.07;97.94;101044.36;3445960;84;98728;-84
